createdAt,value
2023-04-16T00:00:22.690Z,98.39
2023-04-16T00:05:25.246Z,89.23
2023-04-16T00:15:44.404Z,91.46
2023-04-16T00:20:47.645Z,93.37
2023-04-16T00:25:50.284Z,94.14
2023-04-16T00:30:53.140Z,94.50
2023-04-16T00:35:59.140Z,91.12
2023-04-16T00:41:01.739Z,95.91
2023-04-16T00:46:07.298Z,99.66
2023-04-16T00:51:11.077Z,98.28
2023-04-16T00:56:14.055Z,97.99
2023-04-16T01:01:16.815Z,92.11
2023-04-16T01:06:19.900Z,94.51
2023-04-16T01:11:22.720Z,96.16
2023-04-16T01:16:26.982Z,93.79
2023-04-16T01:21:30.110Z,95.41
2023-04-16T01:26:32.891Z,94.70
2023-04-16T01:31:35.842Z,92.26
2023-04-16T01:36:58.978Z,100.00
2023-04-16T01:42:02.549Z,94.48
2023-04-16T01:47:05.183Z,95.44
2023-04-16T01:52:08.736Z,97.02
2023-04-16T01:57:11.408Z,97.67
2023-04-16T02:02:16.551Z,97.87
2023-04-16T02:07:19.291Z,96.54
2023-04-16T02:12:21.840Z,100.00
2023-04-16T02:17:24.717Z,99.43
2023-04-16T02:22:38.124Z,95.84
2023-04-16T02:27:40.948Z,99.80
2023-04-16T02:32:59.644Z,100.00
2023-04-16T02:38:03.542Z,100.00
2023-04-16T02:43:06.103Z,100.00
2023-04-16T02:48:09.810Z,100.00
2023-04-16T02:53:12.324Z,100.00
2023-04-16T02:58:14.854Z,100.00
2023-04-16T03:03:17.731Z,100.00
2023-04-16T03:08:20.533Z,100.00
2023-04-16T03:13:23.137Z,100.00
2023-04-16T03:18:25.903Z,97.00
2023-04-16T03:23:28.766Z,100.00
2023-04-16T03:28:31.656Z,97.54
2023-04-16T03:33:34.289Z,98.82
2023-04-16T03:38:37.036Z,100.00
2023-04-16T03:43:39.769Z,100.00
2023-04-16T03:48:42.433Z,100.00
2023-04-16T03:53:45.434Z,98.24
2023-04-16T03:58:49.837Z,100.00
2023-04-16T04:03:52.583Z,100.00
2023-04-16T04:08:55.611Z,97.01
2023-04-16T04:13:58.693Z,94.30
2023-04-16T04:19:01.962Z,100.00
2023-04-16T04:24:04.575Z,95.94
2023-04-16T04:29:09.291Z,94.07
2023-04-16T04:34:12.279Z,93.93
2023-04-16T04:39:15.066Z,90.75
2023-04-16T04:44:19.532Z,100.00
2023-04-16T04:49:22.337Z,95.85
2023-04-16T04:54:25.145Z,98.00
2023-04-16T04:59:29.737Z,100.00
2023-04-16T05:04:32.781Z,91.99
2023-04-16T05:09:35.587Z,93.52
2023-04-16T05:14:38.095Z,97.37
2023-04-16T05:19:40.693Z,93.64
2023-04-16T05:24:43.227Z,99.93
2023-04-16T05:29:46.078Z,92.41
2023-04-16T05:34:48.617Z,96.84
2023-04-16T05:39:51.370Z,100.00
2023-04-16T05:44:53.960Z,98.09
2023-04-16T05:49:56.642Z,100.00
2023-04-16T05:55:01.957Z,95.69
2023-04-16T06:00:05.059Z,99.09
2023-04-16T06:05:14.678Z,94.58
2023-04-16T06:10:17.295Z,100.00
2023-04-16T06:15:19.968Z,93.78
2023-04-16T06:20:22.639Z,96.68
2023-04-16T06:25:25.382Z,95.21
2023-04-16T06:30:28.273Z,90.48
2023-04-16T06:35:31.185Z,92.91
2023-04-16T06:40:33.941Z,98.98
2023-04-16T06:45:36.617Z,100.00
2023-04-16T06:50:40.674Z,96.88
2023-04-16T06:55:43.260Z,95.31
2023-04-16T07:00:46.392Z,96.31
2023-04-16T07:05:48.980Z,100.00
2023-04-16T07:10:52.935Z,95.92
2023-04-16T07:15:55.861Z,99.67
2023-04-16T07:20:58.661Z,98.36
2023-04-16T07:26:01.474Z,100.00
2023-04-16T07:31:04.500Z,96.88
2023-04-16T07:36:07.486Z,96.47
2023-04-16T07:41:10.177Z,93.57
2023-04-16T07:46:12.777Z,95.50
2023-04-16T07:51:15.566Z,94.95
2023-04-16T07:56:18.098Z,93.93
2023-04-16T08:01:20.730Z,93.49
2023-04-16T08:06:23.370Z,100.00
2023-04-16T08:11:26.397Z,87.94
2023-04-16T08:16:29.432Z,88.81
2023-04-16T08:21:32.287Z,88.10
2023-04-16T08:26:35.107Z,96.77
2023-04-16T08:31:37.936Z,92.89
2023-04-16T08:36:41.721Z,90.32
2023-04-16T08:41:46.778Z,93.87
2023-04-16T08:46:50.868Z,86.37
2023-04-16T08:51:57.523Z,89.15
2023-04-16T08:57:04.070Z,88.54
2023-04-16T09:02:07.383Z,94.18
2023-04-16T09:07:10.990Z,91.82
2023-04-16T09:12:13.653Z,88.47
2023-04-16T09:17:17.172Z,91.06
2023-04-16T09:22:19.796Z,89.10
2023-04-16T09:27:25.384Z,89.00
2023-04-16T09:32:29.695Z,92.91
2023-04-16T09:37:32.721Z,92.69
2023-04-16T09:42:37.428Z,91.41
2023-04-16T09:47:45.670Z,89.65
2023-04-16T09:52:51.867Z,93.30
2023-04-16T09:58:01.861Z,91.23
2023-04-16T10:03:06.303Z,90.74
2023-04-16T10:08:13.439Z,91.00
2023-04-16T10:13:17.842Z,90.96
2023-04-16T10:18:20.933Z,92.43
2023-04-16T10:23:23.764Z,91.88
2023-04-16T10:28:27.279Z,94.97
2023-04-16T10:33:35.248Z,90.54
2023-04-16T10:38:45.174Z,91.22
2023-04-16T10:43:52.719Z,92.31
2023-04-16T10:48:57.138Z,90.59
2023-04-16T10:54:12.782Z,89.32
2023-04-16T10:59:20.061Z,89.51
2023-04-16T11:04:25.833Z,90.90
2023-04-16T11:09:51.445Z,97.20
2023-04-16T11:15:06.463Z,92.87
2023-04-16T11:20:20.943Z,96.58
2023-04-16T11:25:31.867Z,94.42
2023-04-16T11:30:39.231Z,94.35
2023-04-16T11:35:43.481Z,91.39
2023-04-16T11:40:47.921Z,91.98
2023-04-16T11:46:10.306Z,94.87
2023-04-16T11:51:19.860Z,92.10
2023-04-16T11:56:34.242Z,94.32
2023-04-16T12:01:38.076Z,91.52
2023-04-16T12:06:41.009Z,88.47
2023-04-16T12:11:43.897Z,92.20
2023-04-16T12:16:46.555Z,94.79
2023-04-16T12:21:52.067Z,90.79
2023-04-16T12:27:03.414Z,92.52
2023-04-16T12:32:20.899Z,92.47
2023-04-16T12:37:23.526Z,94.02
2023-04-16T12:42:26.309Z,93.66
2023-04-16T12:47:28.885Z,94.98
2023-04-16T12:52:32.024Z,100.00
2023-04-16T12:57:34.730Z,86.82
2023-04-16T13:02:37.732Z,96.98
2023-04-16T13:07:40.514Z,90.61
2023-04-16T13:12:43.093Z,83.57
2023-04-16T13:17:46.330Z,88.94
2023-04-16T13:22:49.134Z,81.30
2023-04-16T13:27:51.844Z,83.33
2023-04-16T13:32:54.472Z,77.41
2023-04-16T13:37:57.184Z,81.04
2023-04-16T13:43:00.123Z,80.04
2023-04-16T13:48:03.460Z,81.61
2023-04-16T13:53:06.591Z,82.15
2023-04-16T13:58:09.776Z,81.52
2023-04-16T14:03:12.513Z,80.41
2023-04-16T14:08:16.648Z,77.46
2023-04-16T14:13:19.305Z,79.04
2023-04-16T14:18:22.049Z,88.24
2023-04-16T14:23:24.807Z,85.60
2023-04-16T14:28:27.416Z,80.51
2023-04-16T14:33:30.298Z,81.67
2023-04-16T14:38:33.292Z,83.56
2023-04-16T14:43:36.550Z,80.55
2023-04-16T14:48:40.176Z,79.72
2023-04-16T14:53:42.986Z,80.07
2023-04-16T14:58:45.772Z,80.71
2023-04-16T15:03:48.659Z,82.50
2023-04-16T15:08:51.339Z,81.21
2023-04-16T15:13:54.204Z,80.12
2023-04-16T15:18:56.817Z,79.85
2023-04-16T15:23:59.894Z,80.33
2023-04-16T15:29:02.916Z,77.52
2023-04-16T15:34:05.668Z,81.17
2023-04-16T15:39:08.872Z,82.59
2023-04-16T15:44:11.655Z,83.93
2023-04-16T15:49:14.238Z,80.57
2023-04-16T15:54:18.524Z,81.73
2023-04-16T15:59:21.254Z,82.78
2023-04-16T16:04:26.551Z,80.47
2023-04-16T16:09:29.507Z,81.94
2023-04-16T16:14:33.279Z,81.94
2023-04-16T16:19:35.831Z,83.26
2023-04-16T16:24:38.888Z,81.08
2023-04-16T16:29:41.669Z,82.96
2023-04-16T16:34:44.340Z,85.50
2023-04-16T16:39:47.089Z,87.14
2023-04-16T16:44:49.767Z,85.92
2023-04-16T16:49:54.869Z,83.79
2023-04-16T16:54:58.153Z,83.41
2023-04-16T17:00:01.402Z,85.81
2023-04-16T17:05:05.058Z,81.32
2023-04-16T17:10:08.262Z,88.93
2023-04-16T17:15:11.613Z,88.40
2023-04-16T17:20:14.483Z,89.96
2023-04-16T17:25:17.267Z,86.14
2023-04-16T17:30:20.009Z,84.54
2023-04-16T17:35:22.976Z,86.85
2023-04-16T17:40:25.769Z,84.62
2023-04-16T17:45:28.516Z,84.65
2023-04-16T17:50:31.833Z,89.31
2023-04-16T17:55:34.654Z,93.18
2023-04-16T18:00:37.449Z,93.64
2023-04-16T18:05:41.037Z,94.48
2023-04-16T18:10:43.589Z,96.44
2023-04-16T18:15:46.462Z,95.48
2023-04-16T18:20:49.229Z,98.51
2023-04-16T18:25:52.214Z,99.23
2023-04-16T18:30:58.707Z,100.00
2023-04-16T18:36:02.701Z,98.18
2023-04-16T18:41:05.438Z,99.00
2023-04-16T18:46:08.051Z,99.35
2023-04-16T18:51:11.899Z,100.00
2023-04-16T18:56:15.211Z,100.00
2023-04-16T19:01:18.071Z,100.00
2023-04-16T19:06:20.829Z,100.00
2023-04-16T19:11:23.626Z,100.00
2023-04-16T19:16:26.522Z,100.00
2023-04-16T19:21:29.516Z,100.00
2023-04-16T19:26:32.598Z,100.00
2023-04-16T19:31:35.262Z,100.00
2023-04-16T19:36:38.296Z,100.00
2023-04-16T19:41:41.003Z,100.00
2023-04-16T19:46:43.695Z,100.00
2023-04-16T19:51:46.586Z,100.00
2023-04-16T19:56:53.383Z,100.00
2023-04-16T20:01:56.060Z,100.00
2023-04-16T20:06:58.964Z,100.00
2023-04-16T20:12:02.521Z,100.00
2023-04-16T20:17:10.213Z,100.00
2023-04-16T20:22:13.479Z,100.00
2023-04-16T20:27:17.084Z,100.00
2023-04-16T20:32:19.766Z,100.00
2023-04-16T20:37:22.741Z,100.00
2023-04-16T20:42:26.540Z,100.00
2023-04-16T20:47:29.256Z,100.00
2023-04-16T20:52:32.854Z,100.00
2023-04-16T20:57:35.518Z,100.00
2023-04-16T21:02:38.549Z,100.00
2023-04-16T21:07:41.998Z,100.00
2023-04-16T21:12:44.786Z,100.00
2023-04-16T21:17:47.416Z,100.00
2023-04-16T21:22:51.399Z,100.00
2023-04-16T21:27:54.080Z,100.00
2023-04-16T21:32:56.782Z,100.00
2023-04-16T21:37:59.512Z,100.00
2023-04-16T21:43:02.488Z,100.00
2023-04-16T21:48:05.381Z,100.00
2023-04-16T21:53:08.075Z,100.00
2023-04-16T21:58:10.934Z,100.00
2023-04-16T22:03:13.868Z,100.00
2023-04-16T22:08:24.448Z,100.00
2023-04-16T22:13:34.118Z,100.00
2023-04-16T22:18:37.621Z,100.00
2023-04-16T22:23:40.223Z,98.47
2023-04-16T22:28:42.795Z,97.23
2023-04-16T22:33:45.581Z,98.57
2023-04-16T22:38:48.467Z,98.13
2023-04-16T22:43:52.487Z,97.83
2023-04-16T22:48:55.317Z,97.36
2023-04-16T22:53:58.056Z,98.15
2023-04-16T22:59:00.865Z,100.00
2023-04-16T23:04:03.871Z,100.00
2023-04-16T23:09:06.733Z,100.00
2023-04-16T23:14:09.904Z,100.00
2023-04-16T23:19:15.099Z,100.00
2023-04-16T23:24:17.669Z,100.00
2023-04-16T23:29:21.040Z,100.00
2023-04-16T23:34:23.661Z,100.00
2023-04-16T23:39:26.346Z,100.00
2023-04-16T23:44:29.225Z,100.00
2023-04-16T23:49:32.109Z,100.00
2023-04-16T23:54:34.870Z,100.00
2023-04-16T23:59:37.382Z,100.00
